Strona główna
METAR-TAF:

METAR-TAF

Lotnisko :

Port lotniczy Kuala Lumpur

Kuala Lumpur, Malezja

Szerokość geograficzna: 02-44N, Długość geograficzna: 101-42E, wysokość: 21 m

Aktualna obserwacja pogody

Raport powstał 25 minut temu, godzina 12:30 UTC
Cisza
Temperatura 27°C
Wilgotność 89%
Ciśnienie 1010 hPa
Widzialność 10 km lub więcej
Mało chmury na wysokości 3000 ft
Rozproszone chmury na wysokości 14000 ft
Przerywane chmury na wysokości 28000 ft

METAR: WMKK 181230Z 00000KT 9999 FEW030 SCT140 BKN280 27/25 Q1010 NOSIG

czas: 20:55 (12:55 UTC)

Prognoza

Raport powstał 1 godzina i 55 minut temu, godzina 11:00 UTC
Prognoza ważna od 18 godzina 12 UTC do 19 godzina 18 UTC
Wiatr 3 kt z kierunków zmiennych
Widzialność: 8000 m
Mało chmury na wysokości 1700 ft, Cumulonimbus.
Stopniowe zmiany
od 19 godzina 04 UTC do 19 godzina 06 UTC
Wiatr 5 kt od południowy zachód

TAF: WMKK 181100Z 1812/1918 VRB03KT 8000 FEW017CB BECMG 1904/1906 22005KT

Obserwacja i prognoza pogody dla ponad 4000 lotnisk (raport METAR i TAF).

Dostępne stacje oznaczono żółtymi i czerwonymi punktami na mapie.

Najedź kursorem aby zobaczyć nazwę stacji.

Kliknij aby zobaczyć obserwacje i prognozy pogody.

Aby zmienić mapę: kliknij na zielony przycisk z czarnym krzyżykiem, aby powiększyć; na zielony przycisk z myślnikiem, aby pomniejszyć; na zielone strzałki, aby przejść do map sąsiednich.


METAR-TAF: